createdAt,value
2022-09-07T00:01:36.629Z,12.20
2022-09-07T00:04:04.819Z,12.20
2022-09-07T00:06:34.733Z,12.20
2022-09-07T00:09:02.882Z,12.30
2022-09-07T00:11:30.966Z,12.30
2022-09-07T00:14:00.770Z,12.40
2022-09-07T00:16:29.645Z,11.60
2022-09-07T00:18:59.326Z,12.30
2022-09-07T00:21:27.891Z,12.40
2022-09-07T00:23:55.924Z,12.30
2022-09-07T00:26:25.099Z,12.40
2022-09-07T00:28:53.907Z,12.30
2022-09-07T00:31:24.308Z,12.20
2022-09-07T00:33:55.831Z,12.30
2022-09-07T00:36:23.959Z,12.30
2022-09-07T00:38:52.264Z,12.30
2022-09-07T00:41:21.286Z,12.30
2022-09-07T00:43:50.665Z,12.20
2022-09-07T00:46:19.870Z,12.20
2022-09-07T00:48:52.743Z,12.20
2022-09-07T00:51:23.121Z,12.40
2022-09-07T00:53:54.482Z,12.40
2022-09-07T00:56:23.376Z,12.50
2022-09-07T00:58:53.039Z,12.50
2022-09-07T01:01:21.948Z,12.60
2022-09-07T01:03:52.484Z,12.60
2022-09-07T01:06:22.300Z,12.50
2022-09-07T01:08:51.424Z,12.40
2022-09-07T01:11:20.794Z,12.50
2022-09-07T01:13:50.159Z,12.50
2022-09-07T01:16:24.492Z,12.40
2022-09-07T01:19:01.419Z,12.40
2022-09-07T01:21:31.814Z,12.40
2022-09-07T01:24:26.803Z,12.50
2022-09-07T01:27:15.578Z,12.50
2022-09-07T01:29:51.262Z,12.50
2022-09-07T01:32:23.869Z,12.50
2022-09-07T01:34:53.574Z,12.50
2022-09-07T01:37:26.153Z,12.50
2022-09-07T01:39:58.235Z,12.50
2022-09-07T01:42:28.792Z,12.50
2022-09-07T01:44:59.337Z,12.50
2022-09-07T01:47:30.061Z,12.50
2022-09-07T01:50:02.606Z,12.40
2022-09-07T01:52:36.209Z,12.50
2022-09-07T01:55:06.330Z,12.50
2022-09-07T01:57:35.721Z,12.60
2022-09-07T02:00:09.376Z,12.60
2022-09-07T02:02:39.525Z,12.60
2022-09-07T02:05:09.368Z,12.50
2022-09-07T02:07:39.639Z,12.40
2022-09-07T02:10:09.568Z,12.50
2022-09-07T02:12:39.418Z,12.40
2022-09-07T02:15:12.308Z,12.40
2022-09-07T02:17:43.074Z,12.40
2022-09-07T02:20:12.780Z,12.50
2022-09-07T02:22:42.652Z,12.40
2022-09-07T02:25:11.724Z,12.40
2022-09-07T02:27:42.194Z,12.40
2022-09-07T02:30:12.383Z,12.30
2022-09-07T02:32:40.455Z,12.30
2022-09-07T02:35:09.579Z,12.30
2022-09-07T02:37:38.450Z,12.40
2022-09-07T02:40:07.218Z,12.30
2022-09-07T02:42:36.182Z,12.20
2022-09-07T02:45:06.584Z,12.20
2022-09-07T02:47:41.820Z,12.10
2022-09-07T02:50:32.511Z,12.20
2022-09-07T02:53:08.251Z,12.20
2022-09-07T02:55:41.675Z,12.20
2022-09-07T02:58:17.060Z,12.20
2022-09-07T03:00:48.940Z,12.20
2022-09-07T03:03:20.701Z,12.20
2022-09-07T03:05:50.978Z,12.20
2022-09-07T03:08:20.791Z,12.10
2022-09-07T03:10:49.411Z,12.10
2022-09-07T03:13:26.906Z,12.10
2022-09-07T03:15:56.449Z,12.00
2022-09-07T03:18:26.534Z,12.00
2022-09-07T03:20:55.103Z,12.00
2022-09-07T03:23:23.114Z,12.00
2022-09-07T03:25:51.498Z,11.90
2022-09-07T03:28:19.526Z,11.90
2022-09-07T03:30:48.710Z,11.90
2022-09-07T03:33:17.367Z,12.00
2022-09-07T03:35:47.198Z,12.10
2022-09-07T03:38:15.260Z,12.20
2022-09-07T03:40:43.489Z,12.10
2022-09-07T03:43:14.606Z,12.10
2022-09-07T03:45:42.777Z,12.00
2022-09-07T03:48:11.008Z,12.20
2022-09-07T03:50:39.106Z,12.10
2022-09-07T03:53:08.603Z,12.10
2022-09-07T03:55:36.754Z,12.00
2022-09-07T03:58:04.781Z,11.90
2022-09-07T04:00:32.930Z,11.90
2022-09-07T04:03:00.971Z,12.00
2022-09-07T04:05:29.054Z,12.00
2022-09-07T04:07:57.080Z,12.10
2022-09-07T04:10:26.656Z,12.10
2022-09-07T04:12:54.674Z,12.10
2022-09-07T04:15:22.697Z,12.20
2022-09-07T04:17:50.740Z,12.20
2022-09-07T04:20:18.763Z,12.30
2022-09-07T04:22:51.432Z,12.40
2022-09-07T04:25:22.252Z,12.40
2022-09-07T04:27:51.670Z,12.50
2022-09-07T04:30:19.719Z,12.40
2022-09-07T04:32:48.286Z,12.50
2022-09-07T04:35:16.505Z,12.50
2022-09-07T04:37:44.762Z,12.40
2022-09-07T04:40:13.275Z,12.40
2022-09-07T04:42:41.503Z,12.50
2022-09-07T04:45:11.590Z,12.60
2022-09-07T04:47:39.721Z,12.50
2022-09-07T04:50:08.567Z,12.50
2022-09-07T04:52:36.739Z,12.50
2022-09-07T04:55:05.387Z,12.50
2022-09-07T04:57:33.599Z,12.50
2022-09-07T05:00:01.650Z,12.40
2022-09-07T05:02:33.943Z,12.30
2022-09-07T05:05:04.087Z,12.20
2022-09-07T05:07:32.362Z,12.20
2022-09-07T05:10:00.352Z,12.20
2022-09-07T05:12:28.593Z,12.20
2022-09-07T05:14:58.775Z,12.10
2022-09-07T05:17:27.043Z,12.10
2022-09-07T05:19:57.218Z,12.20
2022-09-07T05:22:26.189Z,12.20
2022-09-07T05:24:54.414Z,12.20
2022-09-07T05:27:22.406Z,12.30
2022-09-07T05:30:06.589Z,12.40
2022-09-07T05:32:35.134Z,12.50
2022-09-07T05:35:04.787Z,12.50
2022-09-07T05:37:32.806Z,12.60
2022-09-07T05:40:01.115Z,12.50
2022-09-07T05:42:29.145Z,12.60
2022-09-07T05:44:57.389Z,12.60
2022-09-07T05:47:25.444Z,12.50
2022-09-07T05:49:57.002Z,12.60
2022-09-07T05:52:29.859Z,12.60
2022-09-07T05:55:13.032Z,12.60
2022-09-07T05:57:46.326Z,12.60
2022-09-07T06:00:15.613Z,12.60
2022-09-07T06:02:43.907Z,12.70
2022-09-07T06:05:12.506Z,12.70
2022-09-07T06:07:42.011Z,12.70
2022-09-07T06:12:58.242Z,12.80
2022-09-07T06:15:26.479Z,12.90
2022-09-07T06:17:54.860Z,12.80
2022-09-07T06:20:23.038Z,12.90
2022-09-07T06:22:55.476Z,12.90
2022-09-07T06:25:23.547Z,12.90
2022-09-07T06:27:52.142Z,12.90
2022-09-07T06:30:23.080Z,12.90
2022-09-07T06:32:51.063Z,12.90
2022-09-07T06:35:19.146Z,12.90
2022-09-07T06:37:47.357Z,12.90
2022-09-07T06:40:17.470Z,13.00
2022-09-07T06:42:45.481Z,12.90
2022-09-07T06:45:13.650Z,12.90
2022-09-07T06:47:41.698Z,12.90
2022-09-07T06:50:10.409Z,13.00
2022-09-07T06:55:29.041Z,13.00
2022-09-07T06:57:57.118Z,13.00
2022-09-07T07:00:25.212Z,13.00
2022-09-07T07:02:53.515Z,13.00
2022-09-07T07:05:21.877Z,13.00
2022-09-07T07:07:49.889Z,13.00
2022-09-07T07:10:23.713Z,13.00
2022-09-07T07:13:00.191Z,13.00
2022-09-07T07:15:29.341Z,12.90
2022-09-07T07:18:05.088Z,12.70
2022-09-07T07:20:37.696Z,12.60
2022-09-07T07:23:06.152Z,12.50
2022-09-07T07:25:35.083Z,12.50
2022-09-07T07:30:56.149Z,12.70
2022-09-07T07:33:24.322Z,12.70
2022-09-07T07:35:52.303Z,12.80
2022-09-07T07:44:00.762Z,12.80
2022-09-07T07:46:30.372Z,12.80
2022-09-07T07:48:58.824Z,12.80
2022-09-07T07:51:27.025Z,12.70
2022-09-07T07:53:55.454Z,12.60
2022-09-07T07:56:26.104Z,12.50
2022-09-07T07:58:58.875Z,12.40
2022-09-07T08:01:27.146Z,12.40
2022-09-07T08:03:55.319Z,12.50
2022-09-07T08:06:23.314Z,12.70
2022-09-07T08:08:51.272Z,12.50
2022-09-07T08:11:20.176Z,12.50
2022-09-07T08:13:49.629Z,12.60
2022-09-07T08:16:19.652Z,12.70
2022-09-07T08:18:47.788Z,12.70
2022-09-07T08:21:16.695Z,12.80
2022-09-07T08:23:44.741Z,13.00
2022-09-07T08:26:12.803Z,13.20
2022-09-07T08:28:41.901Z,13.10
2022-09-07T08:31:11.204Z,13.20
2022-09-07T08:33:40.881Z,13.50
2022-09-07T08:36:10.951Z,13.70
2022-09-07T08:38:39.321Z,13.60
2022-09-07T08:41:23.065Z,13.60
2022-09-07T08:43:53.979Z,13.70
2022-09-07T08:46:27.803Z,13.90
2022-09-07T08:48:58.395Z,14.00
2022-09-07T08:51:29.811Z,14.10
2022-09-07T08:53:58.173Z,14.00
2022-09-07T08:56:33.467Z,14.20
2022-09-07T08:59:04.452Z,14.30
2022-09-07T09:01:34.088Z,14.40
2022-09-07T09:04:21.219Z,14.60
2022-09-07T09:07:00.430Z,14.40
2022-09-07T09:09:34.010Z,14.50
2022-09-07T09:12:07.702Z,14.80
2022-09-07T09:14:40.637Z,15.20
2022-09-07T09:17:10.387Z,14.90
2022-09-07T09:19:56.684Z,15.10
2022-09-07T09:22:26.766Z,15.20
2022-09-07T09:24:59.071Z,15.10
2022-09-07T09:27:27.066Z,15.20
2022-09-07T09:29:55.203Z,15.10
2022-09-07T09:32:36.754Z,15.30
2022-09-07T09:35:13.748Z,15.30
2022-09-07T09:37:42.619Z,15.10
2022-09-07T09:40:20.042Z,15.20
2022-09-07T09:42:48.631Z,15.00
2022-09-07T09:45:19.942Z,15.30
2022-09-07T09:47:51.732Z,15.40
2022-09-07T09:53:24.110Z,15.30
2022-09-07T09:55:52.941Z,15.20
2022-09-07T10:01:24.456Z,14.30
2022-09-07T10:03:56.889Z,13.10
2022-09-07T10:06:28.059Z,12.70
2022-09-07T10:08:57.888Z,12.80
2022-09-07T10:14:32.189Z,12.90
2022-09-07T10:17:02.127Z,13.30
2022-09-07T10:19:33.534Z,13.60
2022-09-07T10:22:03.586Z,13.70
2022-09-07T10:24:34.509Z,13.70
2022-09-07T10:27:02.544Z,14.00
2022-09-07T10:29:31.611Z,14.10
2022-09-07T10:32:07.110Z,14.10
2022-09-07T10:34:40.676Z,14.00
2022-09-07T10:37:13.528Z,13.80
2022-09-07T10:39:43.202Z,14.00
2022-09-07T10:42:26.792Z,14.00
2022-09-07T10:45:02.158Z,14.30
2022-09-07T10:47:35.028Z,14.20
2022-09-07T10:52:59.695Z,14.60
2022-09-07T10:55:31.505Z,14.30
2022-09-07T10:58:04.118Z,14.50
2022-09-07T11:00:37.501Z,14.90
2022-09-07T11:03:27.933Z,15.10
2022-09-07T11:06:16.866Z,14.90
2022-09-07T11:14:32.997Z,14.70
2022-09-07T11:17:02.618Z,14.70
2022-09-07T11:19:35.949Z,14.40
2022-09-07T11:22:08.716Z,14.50
2022-09-07T11:24:40.895Z,15.70
2022-09-07T11:27:11.382Z,14.50
2022-09-07T11:29:42.132Z,14.40
2022-09-07T11:32:16.191Z,14.50
2022-09-07T11:34:46.573Z,14.60
2022-09-07T11:37:18.154Z,14.50
2022-09-07T11:39:54.346Z,14.30
2022-09-07T11:45:15.462Z,14.00
2022-09-07T11:47:45.474Z,14.20
2022-09-07T11:50:17.087Z,14.60
2022-09-07T11:52:53.662Z,14.50
2022-09-07T11:55:25.895Z,14.50
2022-09-07T11:58:06.867Z,14.30
2022-09-07T12:00:41.504Z,14.40
2022-09-07T12:03:26.636Z,14.20
2022-09-07T12:06:12.227Z,14.20
2022-09-07T12:08:56.727Z,14.20
2022-09-07T12:11:36.180Z,14.00
2022-09-07T12:14:16.591Z,13.90
2022-09-07T12:17:00.876Z,13.90
2022-09-07T12:19:29.351Z,13.90
2022-09-07T12:21:58.085Z,14.00
2022-09-07T12:24:43.878Z,14.30
2022-09-07T12:27:34.071Z,14.30
2022-09-07T12:30:20.576Z,14.40
2022-09-07T12:33:06.129Z,14.00
2022-09-07T12:35:39.827Z,14.20
2022-09-07T12:38:25.641Z,14.30
2022-09-07T12:41:00.788Z,14.40
2022-09-07T12:43:49.906Z,14.50
2022-09-07T12:46:36.074Z,14.60
2022-09-07T12:49:08.723Z,14.60
2022-09-07T12:54:28.953Z,14.30
2022-09-07T12:59:53.010Z,14.10
2022-09-07T13:02:41.846Z,14.10
2022-09-07T13:05:17.215Z,14.10
2022-09-07T13:07:51.036Z,14.40
2022-09-07T13:10:24.588Z,14.50
2022-09-07T13:12:53.634Z,14.40
2022-09-07T13:15:41.083Z,14.60
2022-09-07T13:18:12.908Z,14.90
2022-09-07T13:20:42.236Z,14.90
2022-09-07T13:23:22.010Z,15.10
2022-09-07T13:25:51.842Z,14.90
2022-09-07T13:28:44.066Z,14.90
2022-09-07T13:31:33.092Z,14.70
2022-09-07T13:34:01.092Z,14.50
2022-09-07T13:36:46.636Z,14.80
2022-09-07T13:39:16.639Z,15.10
2022-09-07T13:41:48.411Z,14.70
2022-09-07T13:44:25.076Z,14.70
2022-09-07T13:47:09.172Z,14.50
2022-09-07T13:49:46.372Z,14.90
2022-09-07T13:52:17.222Z,15.00
2022-09-07T13:54:56.461Z,15.10
2022-09-07T13:57:28.719Z,14.90
2022-09-07T13:59:56.991Z,15.10
2022-09-07T14:02:27.043Z,14.90
2022-09-07T14:04:56.171Z,15.10
2022-09-07T14:07:27.107Z,14.80
2022-09-07T14:10:11.747Z,15.00
2022-09-07T14:12:43.953Z,14.80
2022-09-07T14:15:18.791Z,15.20
2022-09-07T14:17:47.527Z,15.00
2022-09-07T14:20:16.889Z,15.50
2022-09-07T14:22:50.621Z,15.20
2022-09-07T14:25:22.336Z,15.00
2022-09-07T14:27:51.254Z,15.40
2022-09-07T14:30:28.456Z,15.20
2022-09-07T14:32:57.646Z,15.80
2022-09-07T14:35:26.800Z,15.70
2022-09-07T14:37:57.057Z,15.40
2022-09-07T14:40:26.195Z,15.10
2022-09-07T14:42:55.297Z,14.80
2022-09-07T14:45:33.870Z,14.80
2022-09-07T14:48:12.217Z,14.60
2022-09-07T14:50:41.214Z,14.60
2022-09-07T14:56:10.550Z,14.70
2022-09-07T14:58:40.467Z,15.10
2022-09-07T15:03:59.516Z,15.40
2022-09-07T15:09:31.623Z,14.50
2022-09-07T15:12:11.505Z,14.50
2022-09-07T15:14:39.505Z,14.60
2022-09-07T15:20:24.755Z,14.70
2022-09-07T15:22:52.697Z,14.90
2022-09-07T15:25:23.027Z,15.10
2022-09-07T15:27:51.241Z,15.30
2022-09-07T15:30:19.365Z,15.50
2022-09-07T15:32:47.557Z,15.40
2022-09-07T15:35:15.959Z,15.10
2022-09-07T15:40:38.018Z,14.60
2022-09-07T15:43:19.412Z,14.40
2022-09-07T15:45:48.482Z,14.40
2022-09-07T15:48:17.185Z,14.80
2022-09-07T15:50:45.451Z,15.00
2022-09-07T15:56:03.161Z,14.40
2022-09-07T15:58:33.713Z,14.50
2022-09-07T16:03:54.878Z,14.50
2022-09-07T16:06:23.609Z,14.00
2022-09-07T16:08:54.673Z,14.40
2022-09-07T16:11:25.079Z,13.90
2022-09-07T16:13:56.283Z,14.10
2022-09-07T16:17:26.544Z,13.90
2022-09-07T16:19:15.398Z,13.80
2022-09-07T16:21:43.855Z,14.10
2022-09-07T16:24:11.925Z,14.20
2022-09-07T16:26:41.262Z,13.80
2022-09-07T16:29:09.473Z,13.70
2022-09-07T16:31:37.916Z,14.00
2022-09-07T16:34:06.220Z,14.00
2022-09-07T16:36:40.346Z,13.80
2022-09-07T16:39:08.612Z,13.80
2022-09-07T16:41:45.279Z,13.90
2022-09-07T16:44:18.138Z,13.80
2022-09-07T16:46:47.043Z,13.60
2022-09-07T16:49:17.558Z,13.80
2022-09-07T16:51:45.829Z,13.70
2022-09-07T16:54:15.796Z,13.80
2022-09-07T16:56:45.340Z,14.00
2022-09-07T16:59:16.222Z,13.80
2022-09-07T17:01:44.292Z,13.80
2022-09-07T17:04:20.850Z,13.60
2022-09-07T17:06:55.096Z,13.30
2022-09-07T17:09:26.765Z,13.30
2022-09-07T17:11:56.282Z,13.40
2022-09-07T17:14:24.479Z,13.00
2022-09-07T17:16:52.599Z,13.30
2022-09-07T17:19:29.921Z,13.20
2022-09-07T17:21:59.858Z,13.00
2022-09-07T17:24:27.846Z,13.00
2022-09-07T17:26:59.470Z,12.90
2022-09-07T17:29:30.569Z,12.90
2022-09-07T17:34:47.402Z,13.00
2022-09-07T17:37:15.829Z,12.80
2022-09-07T17:39:44.440Z,12.70
2022-09-07T17:42:14.543Z,12.70
2022-09-07T17:44:42.497Z,12.60
2022-09-07T17:47:10.542Z,12.60
2022-09-07T17:49:38.719Z,12.60
2022-09-07T17:52:06.779Z,12.50
2022-09-07T17:54:34.879Z,12.40
2022-09-07T17:57:06.341Z,12.50
2022-09-07T18:02:37.720Z,12.50
2022-09-07T18:05:09.064Z,12.60
2022-09-07T18:07:37.592Z,12.70
2022-09-07T18:10:09.053Z,12.80
2022-09-07T18:12:37.145Z,12.70
2022-09-07T18:15:07.582Z,12.60
2022-09-07T18:17:38.149Z,12.60
2022-09-07T18:20:07.204Z,12.60
2022-09-07T18:22:37.355Z,12.60
2022-09-07T18:25:10.072Z,12.70
2022-09-07T18:27:39.866Z,12.60
2022-09-07T18:30:11.134Z,12.30
2022-09-07T18:32:40.433Z,12.50
2022-09-07T18:35:09.171Z,12.40
2022-09-07T18:37:39.519Z,12.30
2022-09-07T18:40:09.338Z,12.30
2022-09-07T18:42:38.821Z,12.30
2022-09-07T18:45:30.730Z,12.30
2022-09-07T18:48:01.134Z,12.30
2022-09-07T18:50:31.721Z,12.20
2022-09-07T18:53:15.863Z,12.10
2022-09-07T18:55:46.577Z,12.00
2022-09-07T18:58:17.416Z,12.10
2022-09-07T19:00:56.494Z,12.10
2022-09-07T19:03:28.200Z,12.00
2022-09-07T19:06:03.396Z,12.00
2022-09-07T19:08:35.849Z,11.90
2022-09-07T19:11:08.580Z,12.00
2022-09-07T19:13:43.309Z,12.00
2022-09-07T19:16:18.383Z,12.00
2022-09-07T19:18:50.388Z,11.90
2022-09-07T19:21:24.735Z,11.80
2022-09-07T19:24:00.289Z,11.70
2022-09-07T19:26:34.833Z,11.80
2022-09-07T19:29:06.840Z,11.70
2022-09-07T19:31:41.629Z,11.70
2022-09-07T19:34:16.691Z,11.60
2022-09-07T19:36:52.504Z,11.60
2022-09-07T19:39:24.363Z,11.50
2022-09-07T19:41:56.572Z,11.40
2022-09-07T19:44:26.621Z,11.50
2022-09-07T19:47:01.346Z,11.50
2022-09-07T19:49:30.933Z,11.50
2022-09-07T19:52:00.962Z,11.40
2022-09-07T19:54:29.832Z,11.50
2022-09-07T19:56:58.780Z,11.50
2022-09-07T19:59:28.275Z,11.60
2022-09-07T20:02:00.512Z,11.60
2022-09-07T20:04:31.323Z,11.60
2022-09-07T20:06:59.462Z,11.60
2022-09-07T20:09:27.685Z,11.70
2022-09-07T20:11:55.803Z,11.70
2022-09-07T20:14:24.123Z,11.80
2022-09-07T20:16:54.795Z,11.80
2022-09-07T20:19:24.715Z,11.90
2022-09-07T20:21:55.858Z,12.00
2022-09-07T20:24:24.566Z,11.90
2022-09-07T20:26:52.662Z,11.90
2022-09-07T20:29:27.687Z,11.90
2022-09-07T20:31:57.415Z,12.00
2022-09-07T20:34:27.194Z,12.00
2022-09-07T20:36:55.511Z,12.10
2022-09-07T20:39:23.962Z,12.10
2022-09-07T20:41:52.591Z,12.10
2022-09-07T20:44:20.832Z,12.10
2022-09-07T20:46:49.016Z,12.20
2022-09-07T20:49:21.713Z,12.10
2022-09-07T20:51:51.341Z,12.20
2022-09-07T20:54:19.445Z,12.20
2022-09-07T20:56:48.336Z,12.20
2022-09-07T20:59:16.399Z,12.20
2022-09-07T21:01:44.420Z,12.20
2022-09-07T21:04:14.440Z,12.20
2022-09-07T21:06:42.441Z,12.20
2022-09-07T21:09:12.098Z,12.20
2022-09-07T21:11:42.802Z,12.20
2022-09-07T21:14:14.084Z,12.20
2022-09-07T21:16:42.807Z,12.20
2022-09-07T21:19:12.132Z,12.20
2022-09-07T21:21:41.171Z,12.20
2022-09-07T21:24:15.907Z,12.30
2022-09-07T21:26:44.069Z,12.30
2022-09-07T21:29:16.541Z,12.20
2022-09-07T21:31:47.155Z,12.20
2022-09-07T21:34:15.983Z,12.30
2022-09-07T21:36:43.998Z,12.30
2022-09-07T21:39:14.630Z,12.30
2022-09-07T21:41:43.106Z,12.20
2022-09-07T21:44:12.881Z,12.20
2022-09-07T21:46:41.177Z,12.20
2022-09-07T21:49:09.469Z,12.40
2022-09-07T21:51:37.785Z,12.20
2022-09-07T21:54:05.867Z,12.20
2022-09-07T21:56:35.492Z,12.20
2022-09-07T21:59:04.790Z,12.10
2022-09-07T22:01:33.271Z,12.00
2022-09-07T22:04:02.223Z,12.00
2022-09-07T22:06:31.152Z,11.90
2022-09-07T22:08:59.643Z,11.80
2022-09-07T22:11:28.132Z,11.80
2022-09-07T22:13:58.134Z,11.80
2022-09-07T22:16:26.283Z,11.70
2022-09-07T22:18:54.423Z,11.70
2022-09-07T22:21:24.111Z,11.70
2022-09-07T22:23:52.773Z,11.60
2022-09-07T22:26:22.455Z,11.50
2022-09-07T22:28:50.743Z,11.50
2022-09-07T22:31:20.885Z,11.50
2022-09-07T22:33:50.006Z,11.40
2022-09-07T22:36:19.179Z,11.40
2022-09-07T22:38:47.944Z,11.40
2022-09-07T22:41:16.846Z,11.40
2022-09-07T22:43:45.358Z,11.30
2022-09-07T22:46:13.524Z,11.20
2022-09-07T22:48:43.505Z,11.20
2022-09-07T22:51:12.245Z,11.20
2022-09-07T22:53:40.999Z,11.20
2022-09-07T22:56:09.551Z,11.20
2022-09-07T22:58:37.763Z,11.10
2022-09-07T23:01:06.328Z,10.90
2022-09-07T23:03:35.359Z,10.90
2022-09-07T23:06:04.985Z,10.80
2022-09-07T23:08:33.183Z,10.70
2022-09-07T23:11:05.344Z,11.70
2022-09-07T23:13:33.694Z,10.60
2022-09-07T23:16:06.184Z,10.60
2022-09-07T23:18:35.646Z,10.50
2022-09-07T23:21:05.251Z,10.50
2022-09-07T23:23:33.315Z,10.40
2022-09-07T23:26:02.607Z,10.30
2022-09-07T23:28:30.775Z,10.30
2022-09-07T23:31:01.222Z,10.10
2022-09-07T23:33:32.757Z,10.00
2022-09-07T23:36:01.866Z,10.00
2022-09-07T23:38:31.578Z,9.90
2022-09-07T23:41:00.130Z,9.90
2022-09-07T23:43:28.951Z,9.80
2022-09-07T23:45:57.335Z,9.80
2022-09-07T23:48:25.420Z,9.70
2022-09-07T23:50:54.276Z,9.60
2022-09-07T23:53:23.391Z,9.60
2022-09-07T23:55:53.495Z,9.50
2022-09-07T23:58:22.105Z,9.50
